Greendale, Wisconsin
Current Conditions -  °F | °C
As of 4:52 AM on Sunday 21 Dec 2014 (Local Time) from KMKE Reporting Station
Haze Haze  
Wind Chill: 26°   Ceiling: 1300
Heat Index: 32°   Visibility: 6mi
Dew Point: 26°   Wind: 7mph
Humidity: 79%   Direction: 180°S
Pressure: 30.19"   Gusts: NA
Location:  42.94°N, 87.99°W
Report Text: KMKE 211052Z 18006KT 6SM HZ BKN013 OVC036 00/M03 A3019 RMK AO2 SLP231 T00001033
Loading
Personal Weather Stations






























Interactive Weather Map New forecast layout! Learn more

10-Day Weather Forecast

Advertisements
Track Severe Weather on mobile